Date,TemperatureHighF,TemperatureAvgF,TemperatureLowF,DewpointHighF,DewpointAvgF,DewpointLowF,HumidityHigh,HumidityAvg,HumidityLow,PressureMaxIn,PressureMinIn,WindSpeedMaxMPH,WindSpeedAvgMPH,GustSpeedMaxMPH,PrecipitationSumIn
2013-1-1,51,49,45,48,44,36,89,84,66,30.16,29.96,0,-999,0,0.88
2013-1-2,49,44,39,46,40,34,90,83,72,30.18,29.96,0,-999,0,0.35
2013-1-3,45,39,32,35,32,26,88,78,62,30.35,30.15,0,-999,0,0.00
2013-1-4,53,36,28,30,24,22,83,65,33,30.43,30.32,0,-999,0,0.00
2013-1-5,50,38,27,34,27,21,81,64,44,30.43,30.27,0,-999,0,0.00
2013-1-6,52,43,37,40,35,32,83,74,61,30.31,30.16,0,-999,0,0.00
2013-1-7,60,42,31,35,31,26,84,66,39,30.41,30.28,0,-999,0,0.00
2013-1-8,53,45,37,41,35,30,75,68,62,30.43,30.32,0,-999,0,0.00
2013-1-9,65,55,48,100,49,39,79,73,71,30.44,30.34,0,-999,0,0.00
2013-1-10,66,60,56,59,55,49,89,82,75,30.42,30.25,0,-999,0,0.04
2013-1-11,69,62,60,64,58,55,89,87,82,30.25,30.14,0,-999,0,0.12
2013-1-12,74,64,58,65,57,53,89,80,63,30.19,30.08,0,-999,0,0.02
2013-1-13,72,64,59,62,59,55,89,82,69,30.15,30.05,0,-999,0,0.02
2013-1-14,65,57,47,60,54,44,90,89,85,30.17,30.06,0,-999,0,0.67
2013-1-15,62,53,47,57,49,44,90,87,83,30.15,29.99,0,-999,0,0.53
2013-1-16,63,58,52,57,54,48,90,86,81,30.04,29.93,0,-999,0,0.51
2013-1-17,52,45,36,49,42,32,91,89,87,30.28,29.82,0,-999,0,0.57
2013-1-18,66,40,30,36,30,27,90,71,33,30.53,30.28,0,-999,0,0.02
2013-1-19,62,41,29,35,30,26,87,68,36,30.48,30.25,0,-999,0,0.00
2013-1-20,68,44,31,44,34,27,88,69,40,30.26,30.13,0,-999,0,0.00
2013-1-21,57,42,32,38,31,21,89,66,44,30.21,30.11,0,-999,0,0.00
2013-1-22,47,35,28,22,17,13,56,48,36,30.36,30.19,0,-999,0,0.00
2013-1-23,58,40,27,37,26,16,66,56,41,30.42,30.21,0,-999,0,0.00
2013-1-24,56,47,35,41,30,16,76,54,32,30.38,30.16,0,-999,0,0.00
2013-1-25,45,38,32,30,22,13,64,51,43,30.40,30.15,0,-999,0,0.00
2013-1-26,60,44,37,35,30,24,86,61,29,30.32,30.17,0,-999,0,0.02
2013-1-27,52,44,38,36,32,27,73,61,53,30.47,30.30,0,-999,0,0.02
2013-1-28,63,48,42,49,38,30,84,69,61,30.43,30.28,0,-999,0,0.02
2013-1-29,74,59,45,61,52,41,89,79,61,30.29,30.00,0,-999,0,0.00
2013-1-30,69,59,42,100,57,34,90,86,74,30.00,29.58,0,-999,0,0.00
2013-1-31,52,40,32,35,26,24,76,60,38,30.20,29.85,0,-999,0,0.00
2013-2-1,45,37,27,29,19,12,69,49,29,30.40,30.16,0,-999,0,0.00
2013-2-2,54,37,23,36,23,14,88,59,31,30.39,30.13,0,-999,0,0.00
2013-2-3,60,43,30,40,31,26,90,67,34,30.17,30.03,0,-999,0,0.00
2013-2-4,54,41,30,32,28,23,78,62,41,30.17,30.03,0,-999,0,0.00
2013-2-5,60,48,36,49,40,29,87,74,62,30.08,29.99,0,-999,0,0.00
2013-2-6,72,52,40,48,39,34,90,66,31,30.21,30.06,0,-999,0,0.00
2013-2-7,50,46,44,43,40,34,90,80,54,30.17,29.91,0,-999,0,0.00
2013-2-8,53,47,37,49,42,31,90,84,72,30.21,29.96,0,-999,0,0.00
2013-2-9,68,44,30,38,32,27,89,65,31,30.34,30.18,0,-999,0,0.00
2013-2-10,60,50,42,50,40,29,89,70,57,30.33,30.04,0,-999,0,0.00
2013-2-11,58,53,47,54,50,44,90,88,84,30.16,30.04,0,-999,0,0.00
2013-2-12,52,47,44,44,42,41,90,84,65,30.15,29.88,0,-999,0,0.00
2013-2-13,53,42,37,100,46,32,90,77,71,30.00,29.77,0,-999,0,0.00
2013-2-14,60,38,36,100,44,32,85,56,42,30.13,29.99,0,-999,0,0.00
2013-2-15,178,36,32,100,59,31,90,36,38,30.16,30.01,0,-999,0,0.00
2013-2-16,45,38,29,33,22,13,72,54,33,30.18,29.99,0,-999,0,0.71
2013-2-17,50,34,3,20,16,-8,65,49,26,30.33,30.18,0,-999,0,0.71
2013-2-18,61,44,29,32,26,19,72,51,32,30.39,30.14,0,-999,0,0.00
2013-2-19,59,47,39,46,33,20,88,60,36,30.19,30.04,0,-999,0,0.37
2013-2-20,52,40,30,100,18,13,60,40,23,30.25,30.11,0,-999,0,0.04
2013-2-21,65,49,32,40,25,16,69,40,25,30.21,29.98,0,-999,0,0.06
2013-2-22,50,42,40,41,39,38,90,88,70,30.17,30.06,0,-999,0,1.26
2013-2-23,50,45,40,46,42,37,90,89,86,30.07,29.88,0,-999,0,1.04
2013-2-24,66,50,37,44,37,31,90,65,32,30.08,29.94,0,-999,0,0.04
2013-2-25,48,44,40,37,34,31,89,67,54,30.06,29.87,0,-999,0,0.02
2013-2-26,57,43,37,50,38,34,90,83,62,29.88,29.60,0,-999,0,1.26
2013-2-27,63,49,40,39,34,31,72,58,37,29.94,29.82,0,-999,0,0.04
2013-2-28,51,42,34,34,29,25,78,61,45,30.03,29.89,0,-999,0,0.00
2013-3-1,42,38,34,28,26,23,71,63,57,30.05,29.98,0,-999,0,0.00
2013-3-2,39,36,33,30,26,24,79,69,59,30.06,29.99,0,-999,0,0.00
2013-3-3,45,33,28,24,21,17,74,60,41,30.12,30.04,0,-999,0,0.00
2013-3-4,63,43,25,34,25,17,75,53,32,30.23,30.02,0,-999,0,0.00
2013-3-5,66,53,39,55,42,26,86,68,53,30.08,29.73,0,-999,0,0.14
2013-3-6,47,37,31,30,25,18,72,61,51,30.22,29.94,0,-999,0,0.14
2013-3-7,61,43,30,34,29,24,79,59,36,30.30,30.19,0,-999,0,0.00
2013-3-8,65,46,29,36,28,23,80,52,28,30.35,30.22,0,-999,0,0.00
2013-3-9,64,51,36,36,30,24,65,47,34,30.35,30.21,0,-999,0,0.00
2013-3-10,72,59,49,43,38,32,59,45,30,30.23,30.07,0,-999,0,0.00
2013-3-11,68,57,49,55,50,42,90,78,59,30.10,29.83,0,-999,0,0.86
2013-3-12,60,48,38,46,36,32,90,66,41,30.13,29.87,0,-999,0,0.59
2013-3-13,58,45,34,35,28,21,81,54,30,30.27,30.11,0,-999,0,0.00
2013-3-14,56,42,28,25,20,17,63,44,26,30.40,30.23,0,-999,0,0.00
2013-3-15,75,55,34,45,36,23,77,50,33,30.26,30.01,0,-999,0,0.00
2013-3-16,80,63,50,44,42,39,67,48,28,30.05,29.91,0,-999,0,0.00
2013-3-17,73,62,50,54,48,40,80,63,48,30.05,29.93,0,-999,0,0.00
2013-3-18,65,57,49,57,52,46,90,83,70,30.02,29.82,0,-999,0,0.84
2013-3-19,66,54,44,46,37,28,90,59,29,30.09,29.89,0,-999,0,0.84
2013-3-20,61,49,41,28,25,22,54,40,26,30.16,29.93,0,-999,0,0.00
2013-3-21,52,41,31,27,20,14,70,45,26,30.02,29.91,0,-999,0,0.00
2013-3-22,54,44,38,34,26,18,59,48,42,30.09,29.98,0,-999,0,0.00
2013-3-23,57,49,43,49,42,33,89,77,59,30.04,29.77,0,-999,0,0.63
2013-3-24,53,49,42,50,45,30,90,85,60,29.85,29.55,0,-999,0,0.29
2013-3-25,47,40,34,30,24,21,65,55,43,30.09,29.71,0,-999,0,0.00
2013-3-26,42,36,31,27,24,21,74,61,51,30.30,30.08,0,-999,0,0.00
2013-3-27,55,42,28,30,25,20,76,54,35,30.37,30.25,0,-999,0,0.00
2013-3-28,62,47,32,32,28,24,77,51,28,30.36,30.24,0,-999,0,0.00
2013-3-29,73,54,36,40,34,28,77,50,30,30.35,30.17,0,-999,0,0.00
2013-3-30,76,59,50,100,44,35,87,53,39,30.20,30.04,0,-999,0,0.10
2013-3-31,70,61,56,58,54,52,89,78,61,30.06,29.90,0,-999,0,0.10
2013-4-1,74,63,54,56,48,41,90,62,32,30.05,29.89,0,-999,0,0.10
2013-4-2,69,56,45,42,38,31,74,53,32,30.20,30.05,0,-999,0,0.02
2013-4-3,63,52,45,43,34,29,84,52,37,30.19,30.10,0,-999,0,0.00
2013-4-4,48,42,39,42,39,36,90,88,84,30.17,29.99,0,-999,0,0.00
2013-4-5,66,50,39,48,40,36,90,73,41,30.08,29.96,0,-999,0,0.00
2013-4-6,75,56,40,46,40,35,86,59,31,30.22,30.07,0,-999,0,0.00
2013-4-7,78,57,47,100,51,40,80,54,38,30.22,30.08,0,-999,0,0.00
2013-4-8,82,53,54,100,63,48,84,51,42,30.18,30.07,0,-999,0,0.00
2013-4-9,86,62,56,100,62,51,88,56,41,30.21,30.09,0,-999,0,0.00
2013-4-10,177,50,58,100,69,53,86,48,42,30.15,29.95,0,-999,0,0.00
2013-4-11,177,41,60,100,79,55,89,41,56,29.98,29.70,0,-999,0,0.00
2013-4-12,178,33,56,100,77,49,89,45,59,29.95,29.67,0,-999,0,0.00
2013-4-13,178,9,50,100,92,42,73,8,43,30.06,29.94,0,-999,0,0.00
2013-4-14,177,28,56,100,75,42,88,39,57,30.08,29.90,0,-999,0,0.00
2013-4-15,176,30,56,100,78,52,89,42,61,30.16,29.94,0,-999,0,0.00
2013-4-16,176,39,58,100,76,55,89,47,55,30.26,30.15,0,-999,0,0.00
2013-4-17,177,26,64,100,86,60,85,29,44,30.24,30.10,0,-999,0,0.00
2013-4-18,176,27,60,100,84,57,89,31,52,30.14,29.94,0,-999,0,0.00
2013-4-19,176,52,45,100,58,38,88,73,66,30.07,29.82,0,-999,0,0.00
2013-4-20,66,51,38,38,34,31,79,56,31,30.25,30.06,0,-999,0,0.00
2013-4-21,72,57,41,46,40,35,79,55,36,30.33,30.23,0,-999,0,0.00
2013-4-22,71,59,49,47,43,39,70,55,41,30.32,30.16,0,-999,0,0.00
2013-4-23,78,62,48,51,44,36,69,53,37,30.25,30.09,0,-999,0,0.00
2013-4-24,80,65,56,61,55,48,88,71,51,30.17,30.09,0,-999,0,0.00
2013-4-25,73,58,45,55,40,28,88,56,23,30.32,30.15,0,-999,0,0.00
2013-4-26,81,61,41,49,42,33,79,52,29,30.38,30.26,0,-999,0,0.00
2013-4-27,79,66,58,54,51,46,82,58,41,30.32,30.15,0,-999,0,0.00
2013-4-28,65,59,56,60,55,53,89,88,82,30.21,30.03,0,-999,0,0.02
2013-4-29,78,64,56,63,57,52,90,79,54,30.07,29.94,0,-999,0,0.02
2013-4-30,83,68,58,65,59,55,90,74,48,30.11,29.98,0,-999,0,0.00
2013-5-1,71,64,60,58,56,53,88,76,59,30.21,30.10,0,-999,0,0.00
2013-5-2,69,62,59,60,56,53,89,81,71,30.20,30.12,0,-999,0,0.00
2013-5-3,64,61,59,57,55,54,87,81,74,30.15,29.97,0,-999,0,0.00
2013-5-4,60,54,50,54,50,47,90,88,77,29.99,29.87,0,-999,0,0.00
2013-5-5,73,56,49,57,49,45,90,80,51,29.89,29.77,0,-999,0,0.12
2013-5-6,62,52,44,51,47,41,90,83,63,29.94,29.84,0,-999,0,0.02
2013-5-7,73,58,49,56,50,46,90,77,51,30.02,29.90,0,-999,0,0.02
2013-5-8,82,65,49,59,54,46,90,70,45,30.10,30.00,0,-999,0,0.00
2013-5-9,87,70,55,64,57,52,89,66,41,30.15,30.06,0,-999,0,0.00
2013-5-10,84,70,59,63,58,54,87,68,48,30.13,29.99,0,-999,0,0.00
2013-5-11,79,66,61,100,62,57,89,74,62,30.03,29.92,0,-999,0,0.02
2013-5-12,77,64,53,59,48,37,89,62,35,30.13,29.98,0,-999,0,0.02
2013-5-13,74,59,43,44,39,36,77,50,30,30.26,30.12,0,-999,0,0.00
2013-5-14,85,66,46,57,48,39,79,56,36,30.28,30.14,0,-999,0,0.00
2013-5-15,93,73,58,62,56,51,81,57,33,30.21,30.05,0,-999,0,0.00
2013-5-16,90,73,64,66,59,54,79,62,42,30.13,30.02,0,-999,0,0.00
2013-5-17,90,73,62,64,58,53,84,61,37,30.14,30.04,0,-999,0,0.02
2013-5-18,76,69,62,66,63,58,89,83,70,30.13,30.06,0,-999,0,0.02
2013-5-19,72,67,64,68,64,60,90,89,87,30.13,30.01,0,-999,0,0.00
2013-5-20,90,74,61,71,65,57,90,75,52,30.14,30.04,0,-999,0,0.00
2013-5-21,94,79,67,72,68,63,90,71,47,30.08,29.94,0,-999,0,0.00
2013-5-22,94,78,67,70,65,62,87,66,42,30.01,29.89,0,-999,0,0.00
2013-5-23,91,77,67,67,62,56,87,63,41,30.02,29.95,0,-999,0,0.00
2013-5-24,79,69,59,57,52,44,77,56,36,30.24,30.01,0,-999,0,0.00
2013-5-25,85,59,52,100,53,42,73,47,33,30.34,30.21,0,-999,0,0.00
2013-5-26,90,69,54,100,54,45,80,52,32,30.29,30.17,0,-999,0,0.00
2013-5-27,95,77,60,64,58,52,79,54,33,30.25,30.13,0,-999,0,0.00
2013-5-28,93,78,66,66,60,54,75,54,32,30.22,30.14,0,-999,0,0.00
2013-5-29,90,74,64,100,63,58,82,63,44,30.25,30.14,0,-999,0,0.00
2013-5-30,88,77,68,68,65,61,85,68,49,30.26,30.13,0,-999,0,0.00
2013-5-31,92,79,69,68,65,62,84,64,43,30.22,30.10,0,-999,0,0.00
2013-6-1,89,76,68,100,67,62,84,66,51,30.13,30.02,0,-999,0,0.00
2013-6-2,89,76,70,100,68,63,89,74,55,30.05,29.91,0,-999,0,0.04
2013-6-3,90,76,69,72,67,65,89,75,50,30.00,29.91,0,-999,0,0.02
2013-6-4,95,80,67,70,66,63,89,66,41,30.04,29.97,0,-999,0,0.00
2013-6-5,90,78,71,73,69,63,88,75,55,30.07,29.92,0,-999,0,0.02
2013-6-12,96,61,79,100,82,73,84,54,55,30.07,30.01,0,-999,0,0.00
2013-6-13,97,59,69,100,81,66,89,52,48,30.04,29.81,0,-999,0,0.00
2013-6-14,177,35,31,100,83,63,89,40,58,30.03,29.89,0,-999,0,0.00
2013-6-15,176,38,66,100,80,59,80,36,52,30.15,30.03,0,-999,0,0.00
2013-6-16,88,38,66,100,81,59,82,38,58,30.18,30.05,0,-999,0,0.00
2013-6-17,176,52,68,100,77,64,89,60,64,30.13,29.96,0,-999,0,0.00
2013-6-18,90,54,67,100,77,64,89,62,61,30.02,29.90,0,-999,0,0.00
2013-6-19,176,49,68,100,78,65,89,55,62,30.11,29.94,0,-999,0,0.00
2013-6-20,83,51,68,100,77,64,89,53,55,30.22,30.10,0,-999,0,0.00
2013-6-21,176,47,66,100,77,62,87,49,56,30.26,30.17,0,-999,0,0.00
2013-6-22,88,49,66,100,76,61,85,46,44,30.25,30.11,0,-999,0,0.00
2013-6-23,92,77,69,72,68,64,88,74,52,30.24,30.12,0,-999,0,0.00
2013-6-24,90,43,70,100,82,66,89,46,56,30.26,30.15,0,-999,0,0.00
2013-6-25,176,48,70,100,80,66,89,52,59,30.20,30.08,0,-999,0,0.00
2013-6-26,96,54,72,100,81,68,89,51,50,30.13,29.98,0,-999,0,0.00
2013-6-27,176,55,73,100,80,68,88,55,59,30.03,29.87,0,-999,0,0.37
2013-6-28,92,50,71,100,81,67,89,55,64,29.93,29.72,0,-999,0,0.37
2013-7-3,72,69,67,69,66,64,89,88,87,30.19,30.13,0,-999,0,1.49
2013-7-4,77,71,68,73,66,63,88,85,82,30.19,30.10,0,-999,0,0.57
2013-7-5,84,73,68,75,68,63,87,84,71,30.23,30.15,0,-999,0,0.47
2013-7-6,85,73,69,78,68,63,87,83,74,30.19,30.11,0,-999,0,1.20
2013-7-7,81,54,70,100,76,64,88,61,77,30.21,30.14,0,-999,0,1.02
2013-7-8,90,46,70,100,80,64,87,50,64,30.24,30.14,0,-999,0,0.10
2013-7-9,176,29,71,100,88,66,87,32,73,30.22,30.10,0,-999,0,0.00
2013-7-10,177,33,72,100,88,68,87,37,61,30.15,30.00,0,-999,0,0.00
2013-7-11,176,75,72,100,71,68,88,83,74,30.03,29.92,0,-999,0,0.00
2013-7-12,91,72,70,100,73,65,88,70,55,29.98,29.90,0,-999,0,0.00
2013-7-13,80,72,68,72,67,64,88,85,76,30.08,29.97,0,-999,0,0.00
2013-7-31,79,68,73,100,74,68,86,75,83,30.06,30.02,0,-999,0,0.00
2013-8-1,90,57,69,100,77,61,84,56,64,30.06,29.95,0,-999,0,0.00
2013-8-2,176,24,67,100,89,58,84,23,71,30.07,29.97,0,-999,0,0.00
2013-8-3,178,33,68,100,86,64,85,36,69,30.10,30.04,0,-999,0,0.00
2013-8-4,177,41,73,100,84,68,85,46,59,30.08,30.00,0,-999,0,0.00
2013-8-5,89,46,69,100,81,65,86,49,63,30.08,30.01,0,-999,0,0.00
2013-8-6,178,28,73,100,89,68,85,31,66,30.06,29.99,0,-999,0,0.00
2013-8-7,177,67,73,100,77,66,86,67,70,30.09,30.01,0,-999,0,0.00
2013-8-8,83,61,72,100,74,60,82,61,64,30.11,30.03,0,-999,0,0.00
2013-8-9,80,27,72,100,87,59,81,25,63,30.13,30.04,0,-999,0,0.00
2013-8-10,96,47,71,100,81,64,82,46,53,30.17,30.09,0,-999,0,0.00
2013-8-11,96,81,70,77,70,60,82,69,52,30.21,30.10,0,-999,0,0.00
2013-8-12,93,79,72,100,70,64,82,75,62,30.16,30.04,0,-999,0,0.00
2013-8-13,91,76,71,100,70,58,81,69,60,30.07,29.93,0,-999,0,0.00
2013-8-14,86,75,70,75,67,63,82,77,66,30.05,29.93,0,-999,0,0.06
2013-8-15,73,69,67,64,61,60,83,76,70,30.11,30.02,0,-999,0,0.08
2013-8-16,67,64,62,62,58,54,84,80,75,30.15,30.06,0,-999,0,0.00
2013-8-17,65,63,60,59,55,52,84,75,68,30.17,30.11,0,-999,0,0.00
2013-8-18,75,6,65,100,96,53,82,6,65,30.22,30.12,0,-999,0,0.00
2013-8-19,178,0,178,100,100,100,0,0,100,30.18,30.08,0,-999,0,0.00
2013-8-20,178,0,178,100,100,100,0,0,100,30.21,30.11,0,-999,0,0.00
2013-8-21,178,0,178,100,100,100,0,0,100,30.27,30.14,0,-999,0,0.00
2013-8-22,178,17,76,100,95,68,76,12,54,30.21,30.08,0,-999,0,0.00
2013-8-23,178,22,79,100,93,70,78,15,55,30.13,30.01,0,-999,0,0.00
2013-8-24,178,34,72,100,87,65,79,28,59,30.27,30.05,0,-999,0,0.00
2013-8-25,178,46,67,100,78,60,78,36,50,30.38,30.26,0,-999,0,0.00
2013-8-26,86,49,65,100,76,59,80,38,48,30.34,30.18,0,-999,0,0.00
2013-8-27,92,48,66,100,81,59,80,37,47,30.21,30.07,0,-999,0,0.00
2013-8-28,178,30,76,100,90,66,79,21,50,30.10,30.02,0,-999,0,0.00
2013-8-29,178,32,81,100,92,69,73,20,56,30.06,29.97,0,-999,0,0.00
2013-8-30,178,14,80,100,96,73,80,12,69,30.06,29.97,0,-999,0,0.00
2013-8-31,178,16,78,100,95,71,81,15,66,30.03,29.92,0,-999,0,0.00
2013-9-1,178,12,76,100,97,68,78,12,58,29.99,29.91,0,-999,0,0.00
2013-9-2,178,38,69,100,84,56,81,37,61,30.03,29.92,0,-999,0,0.00
2013-9-3,178,29,70,100,89,56,80,23,59,30.03,29.93,0,-999,0,0.00
2013-9-4,177,53,72,100,81,61,80,43,49,30.13,30.01,0,-999,0,0.00
2013-9-5,92,68,68,100,73,62,81,60,50,30.17,30.09,0,-999,0,0.00
2013-9-6,91,63,69,100,74,63,81,53,49,30.19,30.08,0,-999,0,0.00
2013-9-7,92,77,66,71,65,60,82,69,47,30.16,30.04,0,-999,0,0.00
2013-9-8,94,76,66,100,68,59,82,68,50,30.07,29.98,0,-999,0,0.00
2013-9-9,93,79,69,74,68,62,81,70,51,30.15,30.03,0,-999,0,0.00
2013-9-10,90,78,69,74,68,62,81,71,57,30.25,30.13,0,-999,0,0.00
2013-9-11,93,78,67,73,65,60,82,67,43,30.26,30.13,0,-999,0,0.00
2013-9-12,92,78,66,72,67,60,82,70,50,30.15,29.95,0,-999,0,0.00
2013-9-13,90,77,66,70,65,56,82,68,46,29.99,29.85,0,-999,0,0.00
2013-9-14,69,60,56,57,53,50,83,79,63,30.03,29.94,0,-999,0,0.00
2013-11-9,60,53,45,42,39,37,78,61,45,30.38,30.25,0,-999,0,0.00
2013-11-10,71,54,46,46,42,37,83,66,40,30.31,30.21,0,-999,0,0.00
2013-11-11,68,50,38,41,37,33,83,62,36,30.34,30.20,0,-999,0,0.00
2013-11-12,60,45,32,44,33,18,83,66,48,30.47,30.17,0,-999,0,0.00
2013-11-13,53,35,25,24,19,16,72,53,29,30.60,30.45,0,-999,0,0.00
2013-11-14,64,40,26,30,23,19,79,55,28,30.51,30.32,0,-999,0,0.00
2013-11-15,52,46,39,45,37,25,83,69,50,30.33,30.17,0,-999,0,0.00
2013-11-16,61,34,45,100,64,38,80,45,63,30.25,30.14,0,-999,0,0.00
2013-11-17,62,28,58,100,76,49,79,36,69,30.18,29.96,0,-999,0,0.00
2013-11-18,177,35,51,100,69,35,78,29,35,30.08,29.93,0,-999,0,0.00
2013-11-19,60,47,39,100,36,29,69,55,43,30.18,30.05,0,-999,0,0.00
2013-11-20,55,44,40,100,37,28,64,51,48,30.34,30.18,0,-999,0,0.00
2013-11-21,57,51,16,47,42,7,81,71,57,30.41,30.32,0,-999,0,0.00
2013-11-22,64,56,50,100,50,43,82,78,71,30.36,30.20,0,-999,0,0.00
2013-11-23,59,49,39,100,46,28,81,64,60,30.28,30.15,0,-999,0,0.00
2013-11-24,54,34,29,100,24,17,68,50,32,30.48,30.26,0,-999,0,0.00
2013-11-25,45,32,29,100,32,13,66,43,36,30.49,30.22,0,-999,0,0.00
2013-11-26,47,39,33,100,33,25,83,74,55,30.21,29.70,0,-999,0,0.00
2013-11-27,43,33,27,100,29,18,83,69,55,30.30,29.71,0,-999,0,0.00
2013-11-28,54,26,21,100,37,15,79,51,37,30.49,30.29,0,-999,0,0.00
2013-11-29,176,37,25,100,28,20,84,59,27,30.56,30.45,0,-999,0,0.00
2013-11-30,53,40,34,100,31,25,74,56,41,30.57,30.35,0,-999,0,0.00
2013-12-1,59,47,40,43,34,27,80,62,51,30.36,30.06,0,-999,0,0.00
2013-12-2,53,34,43,100,57,37,82,59,77,30.06,29.86,0,-999,0,0.00
2013-12-3,177,8,49,100,94,36,60,7,57,29.93,29.86,0,-999,0,0.00
2013-12-4,177,0,177,100,100,100,0,0,100,30.06,29.93,0,-999,0,0.00
2013-12-5,177,0,177,100,100,100,0,0,100,30.11,30.01,0,-999,0,0.00
2013-12-6,177,0,177,100,100,100,0,0,100,30.10,30.01,0,-999,0,0.00
2013-12-7,177,27,41,100,68,36,83,43,71,30.31,30.10,0,-999,0,0.00
2013-12-8,47,11,41,100,90,29,77,13,63,30.30,30.19,0,-999,0,0.00
2013-12-9,176,12,40,100,82,28,63,15,58,30.22,30.05,0,-999,0,0.00
2013-12-10,177,0,177,100,100,100,0,0,100,30.36,29.98,0,-999,0,0.00
2013-12-11,177,3,36,100,97,29,76,4,44,30.45,30.34,0,-999,0,0.08
2013-12-12,176,14,29,100,70,16,78,22,40,30.48,30.37,0,-999,0,0.08
2013-12-13,176,15,27,100,73,17,66,20,31,30.41,30.18,0,-999,0,0.00
2013-12-14,50,20,43,100,72,29,80,29,55,30.19,29.84,0,-999,0,0.00
2013-12-15,178,0,178,100,100,100,0,0,100,30.22,29.86,0,-999,0,0.00
2013-12-16,178,0,178,100,100,100,0,0,100,30.30,30.19,0,-999,0,0.00
2013-12-17,178,0,178,100,100,100,0,0,100,30.26,30.12,0,-999,0,0.00
2013-12-18,178,0,178,100,100,100,0,0,100,30.36,30.20,0,-999,0,0.00
2013-12-19,178,0,178,100,100,100,0,0,100,30.35,30.21,0,-999,0,0.00
2013-12-20,178,0,178,100,100,100,0,0,100,30.25,30.13,0,-999,0,0.00
2013-12-21,178,0,178,100,100,100,0,0,100,30.13,29.96,0,-999,0,0.00
2013-12-22,178,0,178,100,100,100,0,0,100,30.10,29.93,0,-999,0,0.00
2013-12-23,178,0,178,100,100,100,0,0,100,30.28,30.07,0,-999,0,0.00
2013-12-24,178,0,178,100,100,100,0,0,100,30.42,30.27,0,-999,0,0.00
2013-12-25,178,0,178,100,100,100,0,0,100,30.48,30.33,0,-999,0,0.00
2013-12-26,178,0,178,100,100,100,0,0,100,30.39,30.27,0,-999,0,0.00
2013-12-27,178,0,178,100,100,100,0,0,100,30.46,30.33,0,-999,0,0.00
2013-12-28,178,0,178,100,100,100,0,0,100,30.41,30.00,0,-999,0,0.00
2013-12-29,178,0,178,100,100,100,0,0,100,30.08,29.88,0,-999,0,0.00
2013-12-30,178,0,178,100,100,100,0,0,100,30.23,30.07,0,-999,0,0.00
2013-12-31,178,0,178,100,100,100,0,0,100,30.40,30.22,0,-999,0,0.00
2014-1-1,178,0,178,100,100,100,0,0,100,30.38,30.15,0,-999,0,0.00
2014-1-2,178,0,178,100,100,100,0,0,100,30.15,29.81,0,-999,0,0.00